Time;durP1;ratioP1;P1;durP2;ratioP2;P2;SDS_P1;SDS_P2;PMS_P1;PMS_P2;Temp;Humidity;BMP_temperature;BMP_pressure;BME280_temperature;BME280_humidity;BME280_pressure;Samples;Min_cycle;Max_cycle;Signal;HPM_P1;HPM_P2
2023/02/27 00:00:00;;;;;;;2.60;1.58;;;;;;;0.06;100.00;102547.28;6327771;28;20055;-74
2023/02/27 00:03:02;;;;;;;2.58;1.65;;;;;;;0.08;100.00;102547.31;6329801;28;20039;-73
2023/02/27 00:06:04;;;;;;;4.72;2.00;;;;;;;0.08;100.00;102552.47;6329205;28;20036;-72
2023/02/27 00:09:05;;;;;;;2.55;1.48;;;;;;;0.01;100.00;102554.09;6327552;28;20356;-72
2023/02/27 00:12:08;;;;;;;1.40;1.25;;;;;;;-0.04;100.00;102554.00;6329256;28;20048;-74
2023/02/27 00:15:11;;;;;;;2.75;1.55;;;;;;;-0.07;100.00;102555.66;6329134;28;20355;-74
2023/02/27 00:18:13;;;;;;;3.30;1.90;;;;;;;-0.19;100.00;102563.13;6329181;28;20044;-75
2023/02/27 00:21:14;;;;;;;6.32;2.13;;;;;;;-0.24;100.00;102552.72;6329116;28;20059;-74
2023/02/27 00:24:15;;;;;;;8.63;2.30;;;;;;;-0.25;100.00;102550.97;6329063;28;20047;-75
2023/02/27 00:27:18;;;;;;;9.48;2.22;;;;;;;-0.22;100.00;102553.63;6328662;28;20044;-75
2023/02/27 00:30:19;;;;;;;7.25;2.72;;;;;;;-0.36;100.00;102552.47;6305538;28;20418;-75
2023/02/27 00:33:21;;;;;;;7.00;2.88;;;;;;;-0.32;100.00;102557.75;6312950;28;20068;-75
2023/02/27 00:36:22;;;;;;;3.95;2.22;;;;;;;-0.33;100.00;102555.97;6303745;28;20067;-75
2023/02/27 00:39:24;;;;;;;9.27;2.30;;;;;;;-0.53;100.00;102553.00;6319883;28;20048;-75
2023/02/27 00:42:27;;;;;;;4.32;1.83;;;;;;;-0.50;100.00;102557.31;6329048;28;20051;-75
2023/02/27 00:45:28;;;;;;;6.05;2.55;;;;;;;-0.60;100.00;102561.44;6320135;28;20387;-75
2023/02/27 00:48:29;;;;;;;3.10;1.92;;;;;;;-0.59;100.00;102563.19;6328350;28;20047;-75
2023/02/27 00:51:31;;;;;;;4.38;2.63;;;;;;;-0.64;100.00;102562.19;6328697;28;20048;-75
2023/02/27 00:54:32;;;;;;;1.95;1.75;;;;;;;-0.59;100.00;102563.19;6328255;28;20056;-76
2023/02/27 00:57:35;;;;;;;7.63;2.70;;;;;;;-0.65;100.00;102565.63;6319975;28;20056;-76
2023/02/27 01:00:36;;;;;;;6.50;2.05;;;;;;;-0.64;100.00;102562.19;6327856;28;20131;-76
2023/02/27 01:03:38;;;;;;;6.03;2.33;;;;;;;-0.71;100.00;102562.03;6313629;28;20044;-76
2023/02/27 01:06:39;;;;;;;4.70;2.25;;;;;;;-0.68;100.00;102573.31;6319552;28;20352;-75
2023/02/27 01:09:40;;;;;;;5.50;2.40;;;;;;;-0.72;100.00;102568.06;6319372;28;20051;-76
2023/02/27 01:12:43;;;;;;;3.72;2.30;;;;;;;-0.79;100.00;102559.28;6326306;28;20048;-76
2023/02/27 01:15:44;;;;;;;6.05;2.88;;;;;;;-0.74;100.00;102557.66;6321192;28;20051;-76
2023/02/27 01:18:46;;;;;;;6.55;3.15;;;;;;;-0.73;100.00;102561.13;6319510;28;20052;-76
2023/02/27 01:21:47;;;;;;;6.15;2.28;;;;;;;-0.79;100.00;102554.13;6319529;28;20440;-76
2023/02/27 01:24:48;;;;;;;7.25;2.05;;;;;;;-0.78;100.00;102556.72;6325392;28;20051;-76
2023/02/27 01:27:51;;;;;;;8.30;3.67;;;;;;;-0.79;100.00;102561.88;6321421;28;20044;-76
2023/02/27 01:30:52;;;;;;;4.75;2.20;;;;;;;-0.79;100.00;102557.56;6319422;28;20059;-76
2023/02/27 01:33:54;;;;;;;3.55;2.17;;;;;;;-0.82;100.00;102561.78;6325071;28;20044;-75
2023/02/27 01:36:55;;;;;;;5.85;2.88;;;;;;;-0.88;100.00;102554.78;6318867;28;20099;-75
2023/02/27 01:39:56;;;;;;;4.93;2.28;;;;;;;-0.97;100.00;102557.16;6327341;28;20039;-75
2023/02/27 01:42:59;;;;;;;3.78;2.25;;;;;;;-1.02;100.00;102556.19;6319158;28;20044;-75
2023/02/27 01:46:00;;;;;;;5.63;2.28;;;;;;;-1.04;100.00;102557.84;6318667;28;20428;-75
2023/02/27 01:49:07;;;;;;;6.38;3.28;;;;;;;-1.02;100.00;102561.34;6327496;28;20082;-75
2023/02/27 01:52:12;;;;;;;4.88;3.03;;;;;;;-1.04;100.00;102560.44;6318933;28;20051;-76
2023/02/27 01:55:14;;;;;;;5.88;2.28;;;;;;;-1.03;100.00;102559.59;6321956;28;20051;-75
2023/02/27 01:58:17;;;;;;;3.90;2.20;;;;;;;-1.03;100.00;102551.84;6324655;28;20048;-75
2023/02/27 02:01:20;;;;;;;3.97;2.08;;;;;;;-1.05;100.00;102553.50;6318480;28;20048;-75
2023/02/27 02:04:26;;;;;;;10.25;2.58;;;;;;;-1.06;100.00;102552.66;6324490;28;20044;-74
2023/02/27 02:07:29;;;;;;;4.38;1.90;;;;;;;-1.07;100.00;102557.78;6318748;28;20052;-75
2023/02/27 02:10:32;;;;;;;3.50;2.08;;;;;;;-1.18;100.00;102554.06;6326390;28;20055;-75
2023/02/27 02:13:36;;;;;;;7.75;2.65;;;;;;;-1.22;100.00;102558.28;6317981;28;20055;-75
2023/02/27 02:16:54;;;;;;;11.10;2.22;;;;;;;-1.25;100.00;102553.03;6325749;28;20071;-75
2023/02/27 02:20:32;;;;;;;3.72;1.60;;;;;;;-1.25;100.00;102550.47;6321281;28;20063;-75
2023/02/27 02:24:05;;;;;;;5.30;2.05;;;;;;;-1.25;100.00;102542.72;6317818;28;20056;-76
2023/02/27 02:27:17;;;;;;;4.80;1.55;;;;;;;-1.28;100.00;102540.94;6317761;28;20044;-76
2023/02/27 02:30:54;;;;;;;6.95;2.80;;;;;;;-1.26;100.00;102540.13;6326129;28;20127;-75
2023/02/27 02:34:24;;;;;;;6.25;2.22;;;;;;;-1.26;100.00;102537.56;6314136;28;20048;-75
2023/02/27 02:38:00;;;;;;;3.03;2.35;;;;;;;-1.31;100.00;102534.84;6313407;28;20036;-75
2023/02/27 02:41:14;;;;;;;5.72;1.98;;;;;;;-1.32;100.00;102527.94;6321687;28;20447;-76
2023/02/27 02:44:19;;;;;;;4.05;2.75;;;;;;;-1.33;100.00;102521.03;6317334;28;20040;-76
2023/02/27 02:47:30;;;;;;;6.40;2.58;;;;;;;-1.35;100.00;102533.91;6318937;28;20047;-76
2023/02/27 02:50:39;;;;;;;6.88;3.13;;;;;;;-1.40;100.00;102530.34;6325754;28;20075;-76
2023/02/27 02:53:46;;;;;;;3.50;2.40;;;;;;;-1.41;100.00;102533.75;6309801;28;20348;-76
2023/02/27 02:56:53;;;;;;;2.33;1.70;;;;;;;-1.42;100.00;102538.88;6306765;28;20348;-75
2023/02/27 02:59:59;;;;;;;8.60;2.58;;;;;;;-1.44;100.00;102545.69;6320617;28;20054;-76
2023/02/27 03:03:09;;;;;;;6.47;2.47;;;;;;;-1.46;100.00;102547.34;6316370;28;20443;-75
2023/02/27 03:06:15;;;;;;;5.70;3.25;;;;;;;-1.55;100.00;102540.25;6316804;28;20043;-76
2023/02/27 03:09:23;;;;;;;3.58;1.92;;;;;;;-1.58;100.00;102548.81;6319235;28;20051;-75
2023/02/27 03:12:29;;;;;;;6.93;2.25;;;;;;;-1.64;100.00;102548.63;6324315;28;20424;-75
2023/02/27 03:15:35;;;;;;;3.95;2.20;;;;;;;-1.69;100.00;102555.38;6316623;28;20044;-76
2023/02/27 03:18:43;;;;;;;3.30;2.05;;;;;;;-1.68;100.00;102557.13;6317088;28;20052;-76
2023/02/27 03:21:48;;;;;;;3.80;1.73;;;;;;;-1.65;100.00;102556.31;6318560;28;20056;-76
2023/02/27 03:24:53;;;;;;;4.85;1.80;;;;;;;-1.68;100.00;102563.97;6316939;28;20055;-75
2023/02/27 03:27:59;;;;;;;5.35;2.10;;;;;;;-1.66;100.00;102565.75;6316584;28;20467;-76
2023/02/27 03:31:07;;;;;;;5.90;2.47;;;;;;;-1.68;100.00;102572.59;6321177;28;20045;-75
2023/02/27 03:34:16;;;;;;;2.47;1.90;;;;;;;-1.68;100.00;102576.84;6315376;28;20122;-76
2023/02/27 03:37:29;;;;;;;4.90;3.40;;;;;;;-1.67;100.00;102574.34;6316523;28;20379;-76
2023/02/27 03:40:35;;;;;;;3.88;2.20;;;;;;;-1.67;100.00;102573.47;6316745;28;20048;-76
2023/02/27 03:43:47;;;;;;;5.60;1.63;;;;;;;-1.67;100.00;102574.34;6308816;28;20060;-76
2023/02/27 03:46:48;;;;;;;2.88;2.13;;;;;;;-1.67;100.00;102576.03;6320404;28;20343;-76
2023/02/27 03:49:50;;;;;;;5.35;2.28;;;;;;;-1.73;100.00;102571.56;6318816;28;20067;-76
2023/02/27 03:52:53;;;;;;;2.80;1.60;;;;;;;-1.76;100.00;102573.22;6316291;28;20054;-76
2023/02/27 03:55:56;;;;;;;7.20;2.22;;;;;;;-1.82;100.00;102577.38;6318071;28;20051;-76
2023/02/27 03:58:59;;;;;;;4.38;2.05;;;;;;;-1.87;100.00;102593.53;6316325;28;20044;-76
2023/02/27 04:02:02;;;;;;;3.33;1.83;;;;;;;-1.83;100.00;102591.06;6324942;28;20044;-76
2023/02/27 04:05:04;;;;;;;2.55;1.98;;;;;;;-1.84;100.00;102583.31;6318018;28;20433;-76
2023/02/27 04:08:29;;;;;;;6.03;2.25;;;;;;;-1.81;100.00;102583.41;6320608;28;20044;-76
2023/02/27 04:11:45;;;;;;;4.30;2.45;;;;;;;-1.79;100.00;102589.47;6316217;28;20051;-76
2023/02/27 04:15:00;;;;;;;4.72;2.65;;;;;;;-1.83;100.00;102574.75;6318012;28;20052;-76
2023/02/27 04:18:16;;;;;;;4.47;2.58;;;;;;;-1.81;100.00;102583.41;6316321;28;20040;-76
2023/02/27 04:21:24;;;;;;;4.95;2.72;;;;;;;-1.85;100.00;102590.19;6324673;28;20055;-76
2023/02/27 04:24:36;;;;;;;7.45;2.20;;;;;;;-1.80;100.00;102580.00;6317778;28;20040;-76
2023/02/27 04:27:40;;;;;;;4.47;1.90;;;;;;;-1.76;100.00;102597.28;6313019;28;20098;-76
2023/02/27 04:30:52;;;;;;;4.13;1.95;;;;;;;-1.77;100.00;102603.28;6323254;28;20075;-76
2023/02/27 04:34:00;;;;;;;3.22;1.75;;;;;;;-1.74;100.00;102605.91;6311614;28;20071;-76
2023/02/27 04:37:08;;;;;;;3.95;2.60;;;;;;;-1.72;100.00;102601.69;6315815;28;20359;-76
2023/02/27 04:40:12;;;;;;;4.10;2.00;;;;;;;-1.82;100.00;102602.25;6316157;28;20051;-76
2023/02/27 04:43:15;;;;;;;3.28;1.20;;;;;;;-1.81;100.00;102604.03;6318550;28;20047;-76
2023/02/27 04:46:22;;;;;;;3.78;2.03;;;;;;;-1.80;100.00;102608.34;6314446;28;20043;-76
2023/02/27 04:49:28;;;;;;;6.78;2.40;;;;;;;-1.81;100.00;102609.19;6315517;28;20056;-76
2023/02/27 04:52:35;;;;;;;4.53;2.33;;;;;;;-1.80;100.00;102606.63;6315285;28;20059;-76
2023/02/27 04:55:43;;;;;;;4.55;2.50;;;;;;;-1.81;100.00;102604.91;6313525;28;20059;-77
2023/02/27 04:58:49;;;;;;;5.03;2.60;;;;;;;-1.77;100.00;102605.84;6314056;28;20059;-77
2023/02/27 05:01:57;;;;;;;6.07;2.40;;;;;;;-1.74;100.00;102611.06;6305838;28;20066;-76
2023/02/27 05:05:01;;;;;;;3.78;2.08;;;;;;;-1.72;100.00;102612.00;6284793;28;20055;-76
2023/02/27 05:08:09;;;;;;;2.75;1.42;;;;;;;-1.65;100.00;102607.88;6288889;28;20048;-77
2023/02/27 05:11:15;;;;;;;10.00;2.35;;;;;;;-1.64;100.00;102599.31;6291434;28;20052;-77
2023/02/27 05:14:21;;;;;;;7.75;3.38;;;;;;;-1.61;100.00;102608.00;6288158;28;20040;-76
2023/02/27 05:17:30;;;;;;;6.10;3.17;;;;;;;-1.65;100.00;102613.03;6289875;28;20053;-78
2023/02/27 05:20:34;;;;;;;4.63;2.40;;;;;;;-1.64;100.00;102614.78;6287689;28;20479;-77
2023/02/27 05:23:43;;;;;;;4.18;2.13;;;;;;;-1.65;100.00;102621.63;6286542;28;20040;-76
2023/02/27 05:26:58;;;;;;;2.47;1.77;;;;;;;-1.65;100.00;102621.63;6286648;28;20490;-77
2023/02/27 05:30:04;;;;;;;4.53;2.00;;;;;;;-1.65;100.00;102624.22;6287091;28;20044;-76
2023/02/27 05:33:15;;;;;;;6.47;3.03;;;;;;;-1.62;100.00;102619.16;6286095;28;20476;-76
2023/02/27 05:36:22;;;;;;;6.18;2.78;;;;;;;-1.67;100.00;102605.25;6285532;28;20041;-76
2023/02/27 05:39:28;;;;;;;2.72;1.98;;;;;;;-1.67;100.00;102613.00;6286652;28;20585;-76
2023/02/27 05:42:34;;;;;;;2.50;1.73;;;;;;;-1.68;100.00;102630.97;6289047;28;20052;-76
2023/02/27 05:45:38;;;;;;;4.60;1.90;;;;;;;-1.69;100.00;102624.09;6295835;28;20045;-77
2023/02/27 05:48:45;;;;;;;10.80;2.22;;;;;;;-1.73;100.00;102627.41;6302482;28;20051;-77
2023/02/27 05:51:51;;;;;;;5.35;2.45;;;;;;;-1.82;100.00;102634.06;6302267;28;20060;-76
2023/02/27 05:54:59;;;;;;;2.75;1.90;;;;;;;-1.83;100.00;102637.47;6301964;28;20052;-76
2023/02/27 05:58:10;;;;;;;3.00;1.90;;;;;;;-1.86;100.00;102645.13;6301465;28;20049;-76
2023/02/27 06:01:12;;;;;;;3.33;1.75;;;;;;;-1.83;100.00;102642.63;6303335;28;20044;-76
2023/02/27 06:04:15;;;;;;;4.25;2.53;;;;;;;-1.86;100.00;102644.25;6301831;28;20183;-77
2023/02/27 06:07:17;;;;;;;4.60;2.78;;;;;;;-1.92;100.00;102647.50;6301695;28;20428;-76
2023/02/27 06:10:20;;;;;;;5.32;1.98;;;;;;;-1.90;100.00;102660.44;6301780;28;20056;-76
2023/02/27 06:13:23;;;;;;;4.32;2.30;;;;;;;-1.96;100.00;102653.41;6301886;28;20055;-76
2023/02/27 06:16:24;;;;;;;3.78;2.40;;;;;;;-1.98;100.00;102654.19;6301372;28;20048;-77
2023/02/27 06:19:27;;;;;;;2.92;1.75;;;;;;;-1.99;100.00;102657.63;6301550;28;20387;-76
2023/02/27 06:22:28;;;;;;;3.08;1.77;;;;;;;-2.00;100.00;102663.56;6301620;28;20056;-77
2023/02/27 06:25:30;;;;;;;2.65;1.67;;;;;;;-1.95;100.00;102662.91;6301105;28;20048;-76
2023/02/27 06:28:31;;;;;;;4.70;1.73;;;;;;;-1.95;100.00;102669.72;6301161;28;20490;-77
2023/02/27 06:31:32;;;;;;;2.10;1.70;;;;;;;-1.95;100.00;102665.47;6302355;28;20356;-76
2023/02/27 06:34:35;;;;;;;3.05;2.38;;;;;;;-1.87;100.00;102676.84;6301206;28;20051;-76
2023/02/27 06:37:36;;;;;;;6.57;2.70;;;;;;;-1.86;100.00;102668.31;6300951;28;20047;-77
2023/02/27 06:40:38;;;;;;;4.40;1.85;;;;;;;-1.81;100.00;102665.88;6301295;28;20067;-76
2023/02/27 06:43:39;;;;;;;6.82;2.67;;;;;;;-1.82;100.00;102666.69;6300934;28;20051;-77
2023/02/27 06:46:40;;;;;;;9.82;2.83;;;;;;;-1.80;100.00;102671.06;6300953;28;20048;-77
2023/02/27 06:49:43;;;;;;;2.90;2.03;;;;;;;-1.78;100.00;102660.78;6300558;28;20048;-76
2023/02/27 06:52:44;;;;;;;4.85;2.53;;;;;;;-1.78;100.00;102665.94;6300911;28;20436;-77
2023/02/27 06:55:46;;;;;;;4.40;2.72;;;;;;;-1.77;100.00;102677.13;6300442;28;20055;-76
2023/02/27 06:58:47;;;;;;;11.13;3.03;;;;;;;-1.75;100.00;102680.63;6300505;28;20048;-77
2023/02/27 07:01:48;;;;;;;16.98;3.55;;;;;;;-1.65;100.00;102690.34;6318667;28;20467;-77
2023/02/27 07:04:51;;;;;;;9.93;3.13;;;;;;;-1.64;100.00;102685.22;6325647;28;20048;-76
2023/02/27 07:07:52;;;;;;;4.45;3.13;;;;;;;-1.52;100.00;102691.56;6325065;28;20067;-77
2023/02/27 07:10:54;;;;;;;6.35;2.80;;;;;;;-1.45;100.00;102688.31;6325411;28;20459;-76
2023/02/27 07:13:55;;;;;;;3.67;2.47;;;;;;;-1.36;100.00;102697.19;6325699;28;20052;-77
2023/02/27 07:16:56;;;;;;;6.55;3.80;;;;;;;-1.26;100.00;102695.75;6325270;28;20055;-76
2023/02/27 07:19:59;;;;;;;9.45;4.45;;;;;;;-1.21;100.00;102686.41;6325654;28;20055;-76
2023/02/27 07:23:00;;;;;;;5.70;3.10;;;;;;;-1.18;100.00;102694.25;6325242;28;20347;-76
2023/02/27 07:26:02;;;;;;;6.15;2.78;;;;;;;-1.18;100.00;102688.19;6325246;28;20044;-76
2023/02/27 07:29:03;;;;;;;5.90;3.42;;;;;;;-1.08;100.00;102701.38;6325155;28;20329;-76
2023/02/27 07:32:05;;;;;;;6.20;3.53;;;;;;;-1.09;100.00;102707.38;6301125;28;20044;-76
2023/02/27 07:35:09;;;;;;;5.85;2.90;;;;;;;-1.04;100.00;102712.66;6300119;28;20050;-76
2023/02/27 07:38:10;;;;;;;9.50;3.58;;;;;;;-0.99;100.00;102708.50;6299748;28;20056;-76
2023/02/27 07:41:11;;;;;;;4.88;2.97;;;;;;;-0.92;100.00;102712.97;6300068;28;20048;-77
2023/02/27 07:44:13;;;;;;;6.78;3.58;;;;;;;-0.88;100.00;102714.78;6299782;28;20060;-76
2023/02/27 07:47:16;;;;;;;10.48;3.05;;;;;;;-0.84;100.00;102723.50;6299885;28;20044;-76
2023/02/27 07:50:19;;;;;;;6.82;3.03;;;;;;;-0.77;100.00;102730.56;6300100;28;20052;-76
2023/02/27 07:53:20;;;;;;;5.70;2.28;;;;;;;-0.79;100.00;102730.50;6300127;28;20059;-76
2023/02/27 07:56:22;;;;;;;5.65;2.97;;;;;;;-0.76;100.00;102742.63;6299661;28;20056;-77
2023/02/27 07:59:23;;;;;;;5.07;2.85;;;;;;;-0.73;100.00;102736.66;6301080;28;20049;-76
2023/02/27 08:02:24;;;;;;;11.15;2.80;;;;;;;-0.76;100.00;102732.31;6300027;28;20353;-76
2023/02/27 08:05:27;;;;;;;4.95;3.30;;;;;;;-0.68;100.00;102735.06;6299636;28;20139;-76
2023/02/27 08:08:29;;;;;;;3.90;2.70;;;;;;;-0.65;100.00;102732.56;6299465;28;20072;-76
2023/02/27 08:11:30;;;;;;;6.32;3.08;;;;;;;-0.64;100.00;102735.16;6299835;28;20064;-76
2023/02/27 08:14:32;;;;;;;4.20;2.80;;;;;;;-0.62;100.00;102742.97;6299803;28;20048;-76
2023/02/27 08:17:33;;;;;;;5.20;2.92;;;;;;;-0.58;100.00;102730.19;6299435;28;20425;-75
2023/02/27 08:20:36;;;;;;;7.22;3.45;;;;;;;-0.52;100.00;102721.69;6302009;28;20044;-75
2023/02/27 08:23:37;;;;;;;4.80;3.00;;;;;;;-0.45;100.00;102721.03;6304070;28;20132;-75
2023/02/27 08:26:38;;;;;;;6.63;3.15;;;;;;;-0.41;100.00;102715.09;6305447;28;20048;-76
2023/02/27 08:29:40;;;;;;;3.72;2.90;;;;;;;-0.36;100.00;102720.38;6318707;28;20048;-76
2023/02/27 08:32:42;;;;;;;4.18;3.03;;;;;;;-0.33;100.00;102717.84;6325275;28;20051;-75
2023/02/27 08:35:44;;;;;;;5.55;3.20;;;;;;;-0.29;100.00;102715.38;6319933;28;20044;-76
2023/02/27 08:38:46;;;;;;;13.32;3.03;;;;;;;-0.23;100.00;102703.41;6326516;28;20040;-76
2023/02/27 08:41:47;;;;;;;4.43;2.70;;;;;;;-0.16;100.00;102708.78;6322665;28;20455;-76
2023/02/27 08:44:49;;;;;;;4.85;2.75;;;;;;;-0.13;100.00;102706.25;6327689;28;20048;-76
2023/02/27 08:47:51;;;;;;;7.35;3.58;;;;;;;-0.11;100.00;102704.56;6328455;28;20123;-78
2023/02/27 08:50:53;;;;;;;3.53;2.42;;;;;;;-0.02;100.00;102715.13;6326144;28;20040;-79
2023/02/27 08:53:57;;;;;;;5.28;3.55;;;;;;;0.04;100.00;102708.31;6325921;28;20056;-79
2023/02/27 08:56:59;;;;;;;8.98;3.92;;;;;;;0.11;100.00;102713.66;6323245;28;20390;-77
2023/02/27 09:00:00;;;;;;;5.97;2.95;;;;;;;0.19;100.00;102721.59;6317270;28;20044;-78
2023/02/27 09:03:01;;;;;;;7.20;3.20;;;;;;;0.22;100.00;102716.47;6316285;28;20052;-78
2023/02/27 09:06:05;;;;;;;5.38;2.70;;;;;;;0.29;100.00;102715.78;6319646;28;20055;-75
2023/02/27 09:09:06;;;;;;;4.78;2.95;;;;;;;0.33;100.00;102719.31;6322518;28;20356;-75
2023/02/27 09:12:07;;;;;;;9.70;3.17;;;;;;;0.41;100.00;102726.38;6328150;28;20047;-76
2023/02/27 09:15:11;;;;;;;5.70;3.15;;;;;;;0.50;100.00;102726.56;6328024;28;20440;-76
2023/02/27 09:18:12;;;;;;;5.78;2.95;;;;;;;0.54;100.00;102742.13;6327799;28;20044;-76
2023/02/27 09:21:15;;;;;;;4.72;2.70;;;;;;;0.61;100.00;102736.25;6315822;28;20071;-76
2023/02/27 09:24:16;;;;;;;18.92;3.10;;;;;;;0.68;100.00;102739.00;6302791;28;20456;-74
2023/02/27 09:27:17;;;;;;;11.00;3.13;;;;;;;0.75;100.00;102739.97;6312080;28;20051;-75
2023/02/27 09:30:19;;;;;;;4.70;2.63;;;;;;;0.78;100.00;102746.94;6314698;28;20051;-74
2023/02/27 09:33:20;;;;;;;4.53;2.60;;;;;;;0.79;100.00;102749.53;6314648;28;20049;-74
2023/02/27 09:36:23;;;;;;;11.27;3.08;;;;;;;0.85;100.00;102749.66;6320228;28;20432;-74
2023/02/27 09:39:24;;;;;;;3.45;2.03;;;;;;;0.92;100.00;102750.66;6314971;28;20337;-75
2023/02/27 09:42:33;;;;;;;6.97;2.90;;;;;;;0.95;100.00;102740.34;6314596;28;20052;-74
2023/02/27 09:45:38;;;;;;;4.35;3.20;;;;;;;0.99;100.00;102732.66;6316016;28;20041;-73
2023/02/27 09:48:46;;;;;;;6.15;2.55;;;;;;;1.05;100.00;102731.91;6315527;28;20040;-73
2023/02/27 09:51:51;;;;;;;4.68;2.55;;;;;;;1.15;100.00;102730.34;6315955;28;20094;-74
2023/02/27 09:54:54;;;;;;;9.25;2.88;;;;;;;1.27;100.00;102735.72;6318534;28;20048;-72
2023/02/27 09:58:06;;;;;;;6.22;2.90;;;;;;;1.36;100.00;102729.84;6312415;28;20044;-73
2023/02/27 10:01:13;;;;;;;5.93;2.15;;;;;;;1.41;100.00;102730.78;6313489;28;20139;-73
2023/02/27 10:04:30;;;;;;;3.78;1.50;;;;;;;1.50;100.00;102743.91;6315245;28;20040;-73
2023/02/27 10:07:41;;;;;;;2.67;1.77;;;;;;;1.57;100.00;102740.56;6314956;28;20055;-73
2023/02/27 10:10:48;;;;;;;9.38;2.85;;;;;;;1.68;100.00;102739.03;6314237;28;20060;-73
2023/02/27 10:13:57;;;;;;;7.70;2.78;;;;;;;1.76;100.00;102737.38;6314871;28;20048;-73
2023/02/27 10:17:03;;;;;;;2.92;2.13;;;;;;;1.90;100.00;102734.13;6310166;28;20059;-73
2023/02/27 10:20:10;;;;;;;5.35;2.30;;;;;;;1.93;100.00;102736.78;6316815;28;20039;-74
2023/02/27 10:23:16;;;;;;;4.97;2.17;;;;;;;1.97;100.00;102739.44;6319253;28;20043;-73
2023/02/27 10:26:20;;;;;;;11.27;1.95;;;;;;;2.02;100.00;102740.38;6312557;28;20044;-71
2023/02/27 10:29:28;;;;;;;6.13;2.38;;;;;;;2.10;100.00;102744.81;6313435;28;20047;-72
2023/02/27 10:32:34;;;;;;;6.10;1.70;;;;;;;2.24;100.00;102738.94;6314424;28;20352;-74
2023/02/27 10:35:38;;;;;;;7.30;1.83;;;;;;;2.29;100.00;102744.19;6306206;28;20436;-74
2023/02/27 10:38:43;;;;;;;4.82;1.60;;;;;;;2.43;100.00;102746.97;6301171;28;20448;-74
2023/02/27 10:41:46;;;;;;;6.05;1.60;;;;;;;2.45;100.00;102740.06;6300943;28;20055;-73
2023/02/27 10:44:52;;;;;;;7.45;1.77;;;;;;;2.49;100.00;102741.84;6300722;28;20072;-74
2023/02/27 10:47:54;;;;;;;2.72;1.60;;;;;;;2.53;100.00;102747.09;6300656;28;20051;-74
2023/02/27 10:51:21;;;;;;;3.70;2.05;;;;;;;2.58;100.00;102741.09;6302081;28;20135;-71
2023/02/27 10:54:25;;;;;;;7.40;1.80;;;;;;;2.60;100.00;102740.25;6300871;28;20053;-73
2023/02/27 10:57:30;;;;;;;6.80;2.30;;;;;;;2.59;100.00;102741.13;6300608;28;20055;-73
2023/02/27 11:00:41;;;;;;;15.63;2.45;;;;;;;2.62;100.00;102741.13;6300566;28;20052;-73
2023/02/27 11:03:44;;;;;;;4.25;1.52;;;;;;;2.63;100.00;102737.69;6300787;28;20051;-73
2023/02/27 11:06:52;;;;;;;5.72;1.95;;;;;;;2.72;100.00;102742.97;6300276;28;20451;-73
2023/02/27 11:09:59;;;;;;;4.25;1.75;;;;;;;2.78;100.00;102745.66;6300360;28;20374;-71
2023/02/27 11:13:04;;;;;;;5.28;3.30;;;;;;;2.86;100.00;102750.94;6310820;28;20356;-72
2023/02/27 11:16:12;;;;;;;3.22;1.77;;;;;;;2.96;100.00;102754.50;6325546;28;20054;-70
2023/02/27 11:19:25;;;;;;;5.65;1.65;;;;;;;3.13;100.00;102742.53;6323618;28;20135;-70
2023/02/27 11:22:29;;;;;;;3.55;2.33;;;;;;;3.24;100.00;102737.47;6325426;28;20411;-71
2023/02/27 11:25:30;;;;;;;4.03;1.90;;;;;;;3.50;100.00;102738.56;6324995;28;20051;-72
2023/02/27 11:28:32;;;;;;;3.35;1.85;;;;;;;3.74;100.00;102737.00;6323691;28;20047;-71
2023/02/27 11:31:35;;;;;;;8.20;2.72;;;;;;;3.63;100.00;102734.28;6306297;28;20049;-71
2023/02/27 11:34:40;;;;;;;5.30;1.23;;;;;;;3.56;97.75;102730.78;6305312;28;20069;-71
2023/02/27 11:37:49;;;;;;;2.58;1.70;;;;;;;3.60;100.00;102730.84;6311909;28;20123;-71
2023/02/27 11:40:54;;;;;;;7.47;1.75;;;;;;;3.70;97.69;102730.91;6313192;28;20067;-72
2023/02/27 11:43:57;;;;;;;3.08;1.40;;;;;;;3.62;96.54;102729.97;6312870;28;20355;-71
2023/02/27 11:47:13;;;;;;;3.45;1.50;;;;;;;3.72;98.28;102729.16;6316627;28;20040;-72
2023/02/27 11:50:31;;;;;;;2.97;1.63;;;;;;;3.92;96.43;102724.09;6307510;28;20048;-71
2023/02/27 11:53:46;;;;;;;2.33;0.95;;;;;;;4.25;93.45;102727.75;6299934;28;20456;-71
2023/02/27 11:56:53;;;;;;;4.38;1.80;;;;;;;4.61;92.66;102728.75;6322733;28;20348;-72
2023/02/27 11:59:58;;;;;;;4.53;1.77;;;;;;;4.74;89.99;102722.72;6330168;28;20047;-72
2023/02/27 12:03:05;;;;;;;6.03;2.17;;;;;;;4.53;88.67;102713.97;6329597;28;20420;-72
2023/02/27 12:06:13;;;;;;;2.80;1.30;;;;;;;4.38;90.01;102729.56;6329498;28;20477;-73
2023/02/27 12:09:31;;;;;;;1.27;0.98;;;;;;;4.37;90.17;102722.59;6329286;28;20126;-73
2023/02/27 12:12:40;;;;;;;3.33;1.42;;;;;;;4.32;88.71;102713.91;6329795;28;20405;-72
2023/02/27 12:15:46;;;;;;;3.53;1.50;;;;;;;4.10;87.26;102714.69;6329723;28;20070;-73
2023/02/27 12:18:54;;;;;;;3.17;1.63;;;;;;;4.01;90.77;102720.69;6327980;28;20701;-74
2023/02/27 12:22:01;;;;;;;2.70;1.23;;;;;;;3.96;90.27;102718.06;6329593;28;20044;-74
2023/02/27 12:25:10;;;;;;;2.42;1.27;;;;;;;3.97;89.69;102724.13;6320308;28;20051;-74
2023/02/27 12:28:36;;;;;;;4.53;1.58;;;;;;;4.05;88.71;102720.72;6328482;28;20105;-74
2023/02/27 12:31:47;;;;;;;4.38;1.00;;;;;;;4.04;89.95;102712.88;6319235;28;20052;-74
2023/02/27 12:34:52;;;;;;;1.52;1.17;;;;;;;4.03;86.97;102709.41;6316505;28;20056;-74
2023/02/27 12:37:53;;;;;;;8.68;1.00;;;;;;;4.06;88.25;102711.19;6303397;28;20055;-73
2023/02/27 12:41:09;;;;;;;0.65;0.60;;;;;;;4.07;84.67;102705.09;6315885;28;20040;-71
2023/02/27 12:44:29;;;;;;;2.83;1.02;;;;;;;4.07;83.36;102702.50;6320949;28;20044;-74
2023/02/27 12:47:38;;;;;;;2.75;1.25;;;;;;;4.14;84.62;102706.91;6324937;28;20050;-75
2023/02/27 12:50:49;;;;;;;0.90;0.77;;;;;;;4.24;82.19;102703.47;6313368;28;20360;-74
2023/02/27 12:54:05;;;;;;;28.65;6.10;;;;;;;4.28;82.32;102700.00;6327615;28;20056;-74
2023/02/27 12:57:21;;;;;;;80.38;9.07;;;;;;;4.71;81.59;102696.66;6318799;28;20048;-73
2023/02/27 13:00:25;;;;;;;43.55;5.22;;;;;;;5.01;79.92;102691.53;6328620;28;20052;-73
2023/02/27 13:03:33;;;;;;;7.30;0.68;;;;;;;5.46;77.79;102686.31;6321861;28;20074;-74
2023/02/27 13:06:42;;;;;;;9.48;1.30;;;;;;;5.68;73.02;102695.84;6327126;28;20102;-73
2023/02/27 13:09:49;;;;;;;1.33;0.90;;;;;;;5.84;73.17;102699.28;6328007;28;20050;-73
2023/02/27 13:12:58;;;;;;;2.08;0.80;;;;;;;6.15;73.75;102692.28;6328420;28;20048;-73
2023/02/27 13:16:05;;;;;;;0.88;0.45;;;;;;;6.37;75.00;102685.22;6328132;28;20044;-74
2023/02/27 13:19:14;;;;;;;1.35;0.70;;;;;;;6.48;70.68;102682.56;6308730;28;20037;-73
2023/02/27 13:22:27;;;;;;;2.38;1.15;;;;;;;6.66;70.17;102676.34;6321122;28;20560;-74
2023/02/27 13:25:31;;;;;;;5.05;0.70;;;;;;;6.76;67.69;102676.28;6322259;28;20424;-74
2023/02/27 13:28:34;;;;;;;3.47;0.90;;;;;;;6.48;67.59;102683.41;6324041;28;20048;-73
2023/02/27 13:31:45;;;;;;;0.77;0.60;;;;;;;6.17;65.85;102681.81;6302796;28;20056;-74
2023/02/27 13:34:49;;;;;;;0.70;0.60;;;;;;;6.11;66.84;102680.09;6303829;28;20391;-73
2023/02/27 13:37:56;;;;;;;1.58;0.45;;;;;;;5.72;67.82;102681.03;6317161;28;20040;-72
2023/02/27 13:40:58;;;;;;;1.05;0.80;;;;;;;5.52;70.58;102681.94;6318998;28;20040;-72
2023/02/27 13:44:37;;;;;;;10.65;0.80;;;;;;;5.36;71.20;102685.47;6325069;28;20352;-72
2023/02/27 13:47:48;;;;;;;1.33;0.75;;;;;;;5.46;69.52;102686.31;6318150;28;20356;-72
2023/02/27 13:50:51;;;;;;;2.05;0.90;;;;;;;5.88;68.77;102690.59;6327391;28;20050;-72
2023/02/27 13:54:07;;;;;;;1.10;0.50;;;;;;;6.13;69.47;102688.78;6325782;28;20063;-72
2023/02/27 13:57:31;;;;;;;3.67;0.80;;;;;;;6.66;66.94;102686.81;6306127;28;20048;-73
2023/02/27 14:00:36;;;;;;;3.40;0.63;;;;;;;6.85;64.57;102691.03;6301954;28;20048;-72
2023/02/27 14:03:40;;;;;;;2.28;0.50;;;;;;;7.11;65.99;102691.72;6301679;28;20049;-73
2023/02/27 14:06:45;;;;;;;1.35;0.50;;;;;;;7.31;64.28;102688.97;6302862;28;20051;-73
2023/02/27 14:09:49;;;;;;;2.15;0.88;;;;;;;6.84;62.39;102692.78;6326364;28;20067;-73
2023/02/27 14:12:51;;;;;;;1.40;1.00;;;;;;;6.25;66.28;102699.19;6318006;28;20055;-72
2023/02/27 14:15:59;;;;;;;1.65;0.85;;;;;;;6.00;67.86;102693.22;6301317;28;20063;-72
2023/02/27 14:19:01;;;;;;;4.18;1.33;;;;;;;5.77;68.53;102689.75;6320811;28;20041;-72